Terminal Aerodrome Forecast
Issued by NWS Wilmington, OH

Home | Current Version | Previous Version | Text Only | Print | Product List | Glossary On
Versions: 1 2 3 4 5 6 7 8 9 10 11 12 13 14
000
FTUS41 KILN 042300
TAFDAY
TAF
KDAY 042330Z 0500/0524 23007KT P6SM BKN100
     FM050200 20006KT P6SM VCTS BKN050CB OVC150
      TEMPO 0503/0505 3SM -TSRA BR
     FM050500 20007KT P6SM -SHRA BKN050 OVC120
     FM051000 22008KT P6SM SCT070 BKN120
     FM051500 25008KT P6SM SCT070=

USA.gov is the U.S. government's official web portal to all federal, state and local government web resources and services.